Warning: fopen(/var/www/metroair/shared/private/wxdata/metar/AVWX/metar_KRST): failed to open stream: Permission denied in /var/www/metroair/shared/private/library/orig_library/lib_airport.php on line 346

Warning: fwrite() expects parameter 1 to be resource, boolean given in /var/www/metroair/shared/private/library/orig_library/lib_airport.php on line 347

Warning: fclose() expects parameter 1 to be resource, boolean given in /var/www/metroair/shared/private/library/orig_library/lib_airport.php on line 348

Warning: fopen(/var/www/metroair/shared/private/wxdata/TAF/AVWX/taf_KRST): failed to open stream: Permission denied in /var/www/metroair/shared/private/library/orig_library/lib_airport.php on line 533

Warning: fwrite() expects parameter 1 to be resource, boolean given in /var/www/metroair/shared/private/library/orig_library/lib_airport.php on line 534

Warning: fclose() expects parameter 1 to be resource, boolean given in /var/www/metroair/shared/private/library/orig_library/lib_airport.php on line 535

MET2388 - Rochester to Kansas City

Bombardier Dash-8-Q200
838AH
1 hr 15 mins
294 nm
Scheduled - Daily

Bid/PiRep Status

Bid was submitted on Dec 16 2016.

PiRep # 74389: Approved by Dave Nichols on December 20th, 2016 5:17 UTC

Departure

Departing from
Rochester (RST)
Departure gate
A4
Scheduled Departure
GMT 2135
Local 1535
METAR KRST 161154Z 12005KT 10SM OVC090 M05/M08 A3015 RMK AO2 SLP232 T10501078 11044 21089 56013
TAF KRST 161120Z 1612/1712 16006KT P6SM BKN060 FM161500 13004KT P6SM OVC015 FM162000 08008KT 2SM -FZRA BR BKN004 FM162300 07008KT 1SM -FZRA BR OVC003 FM170200 05008KT 1SM -RA BR OVC003 FM170600 03008KT 1SM -RASNPL OVC003
  • No charts available

Arrival

Arriving at
Kansas City (MCI)
Arrival gate
Scheduled Arrival
GMT 2250
Local 1650
METAR KMCI 161153Z 09009KT 3SM -RA BR OVC004 02/00 A2994 RMK AO2 SFC VIS 6 SLP144 P0015 60037 70053 T00170000 10017 20006 56029
TAF KMCI 161202Z 1612/1712 09009KT 6SM -RA BR OVC004 FM161500 14006KT 6SM BR VCSH OVC012 FM162100 18006KT P6SM -SHRA OVC008 FM170200 27006KT 3SM BR VCSH OVC003

Route Map

Planning Resources

KRST LMN BSQ BSQ4
RST MCW J25 DSM LMN BQS4
KRST ZUTEL DSM STJ MAXEE KMCI
MCW DSM LMN BQS4
KRST DSM KMCI
Route:
OFP Layout:
Units:
Detailed Navlog:
ETOPS Planning:
Plan Stepclimbs:
Runway Analysis:
Include NOTAMS:
FIR NOTAMS:
Flight Maps:

Return Flights

MET2385
Bombardier Dash-8-Q200
1500 GMT
MET2387
Bombardier Dash-8-Q200
2000 GMT

Popularity

Hub Current Bids PiReps this month Total PiReps
KMCI 0 0 4
KLAX 0 0 0
KBOS 0 0 0